Terminal Aerodrome Forecast
Issued by NWS Wilmington, OH

Current Version | Previous Version | Text Only | Print | Product List | Glossary Off
Versions: 1 2 3 4 5 6 7 8 9 10 11 12 13 14 15 16 17 18

760
FTUS41 KILN 180341 AAA
TAFCMH
TAF AMD
KCMH 180341Z 1804/1824 18006KT P6SM FEW120
     FM181300 22012KT P6SM FEW250=

USA.gov is the U.S. government's official web portal to all federal, state and local government web resources and services.